Etusivu
METAR-TAF:

METAR-TAF

Lentoasemat :

Bowers Field

Ellensburg, Washington, Yhdysvallat

Leveyspiiri: 47-02-01N, Pituuspiiri: 120-31-45W, korkeus merenpinnasta: 536 m

Tämänhetkinen sää

Tämä raportti tehtiin 34 minuuttia sitten, kello 17.53 UTC
tyyntä
Lämpötila 17°C
Kosteus 39%
Ilmanpaine 1007 hPa
Näkyvyys: 16.1 km
Hajonneita pilviä 8000 ft:n korkeudessa

METAR: KELN 201753Z AUTO 00000KT 10SM BKN080 17/03 A2974 RMK AO2 SLP067 T01670033 10167 20106 58003

Aika: 11:27 (18:27 UTC)


TAF: puuttuu

Säähavainnot ja -ennusteet yli 4000 lentoasemalta (METAR- ja TAF-raportit).

Käytössä olevat sääasemat on merkitty karttaan keltaisilla ja punaisilla pisteillä.

Aseta hiiri pisteen päälle nähdäksesi sääaseman nimen.

Klikkaa sitten nähdäksesi säähavainnot ja -ennusteet.

Kartan vaihtaminen: klikkaa mustalla rastilla varustettuja vihreitä pisteitä, niin voit zoomata sisään; viivalla varustettua vihreää pistettä, niin voit zoomata ulos tai vihreitä nuolia, niin pääset viereisille kartoille.


METAR-TAF: